Oro Valley, AZ (85755)

4:16 PM MST on August 30, 2016 (GMT -0700)
KAZOROVA9 | | Change Station

Elev 3042 ft 32.47 °N, 110.96 °W | Updated 4 seconds ago

Scattered Clouds
Scattered Clouds
84.1 °F
Feels Like 84.1 °F
N
0.0
Wind Variable Wind from West
Gusts 0.0 mph

Today
High -- | Low -- °F
--% Chance of Precip.
Yesterday
High -- | Low -- °F
Precip. -- in
Pressure 29.75 in
Visibility 10.0 miles
Clouds Scattered Clouds 11000 ft
Dew Point 60.5 °F
Humidity 45%
Rainfall 0.05 in
Snow Depth Not available.
5:57 AM 6:50 PM
Waning Crescent, 2% visible
METAR KDMA 302258Z AUTO 11003KT 10SM SCT110 37/09 A2990 RMK AO2 SLP073 T03680087 CHINO RWY30 $
Pressure 29.75 in
Visibility 10.0 miles
Clouds Scattered Clouds 11000 ft
Dew Point 60.5 °F
Humidity 45%
Rainfall 0.05 in
Snow Depth Not available.
5:57 AM 6:50 PM
Waning Crescent, 2% visible
METAR KDMA 302258Z AUTO 11003KT 10SM SCT110 37/09 A2990 RMK AO2 SLP073 T03680087 CHINO RWY30 $

10-Day Weather Forecast

Almanac

Astronomy

Aug. 30, 2016 Rise Set
Actual Time
Civil Twilight
Nautical Twilight
Astronomical Twilight
Moon
Length of Visible Light
Length of Day
Tomorrow will be .
, % of the Moon is Illuminated

Today's Extremes

State Highs State Lows

Community

WunderPhotos

Upload Photos

1,935,920 photos uploaded!

WunderBlog® & News

Nearby

Air Quality

  Air Quality AQ Index Pollutant
Not available.

Snow Depth

Station Depth Elevation

Earthquake Activity

City Distance Mag. Time & Date
Minimum magnitude displayed is 2.5.

Coastal Water Temperatures

Place Temperature

Stations

Nearby Weather Stations

Station Location Temp. Windchill Dew Point Humidity Wind Precip. Elev Updated Type
                   

Watches & Warnings

There are currently no watches in effect.